Laredo International, TX

9:19 AM CST en Noviembre 22, 2014 (GMT -0600)
Zapata | Change Station
CLOSE
Current Station
Aeropuerto
Location: Zapata,
Altura: 423 ft
Estaciones meteorológicas cercanas
Aviso en curso: Special Statement

Alt 423 ft 26.97 °N, 99.25 °W | Updated 24 minutes ago

Nublado
Nublado
72 ° F
Sensación térmica 72 ° F
N
15
Viento Variable Viento desde SE
Gusts 20 mph

Hoy
Alta -- | Baja -- ° F
--% Posibilidad de precipitaciones
Ayer
Alta -- | Baja -- ° F
Precip. -- pul
7:04 AM 5:43 PM
Luna nueva, 0% visible
Presión 29.91 pul
Visibilidad 10.0 Millas
Nubes Muy nublado 1300 ft
Nublado 2700 ft
Punto de rocío 66 ° F
Humedad 82%
Precipitaciones 0.00 pul
Espesor de la nieve No disponible.
UV 0 de una escala de 12
Polen 5.80 de una escala de 12
Calidad del aire No disponible.
Flu Activity No disponible.
METAR KAPY 221455Z AUTO 14013G17KT 10SM BKN013 OVC027 22/18 A2991 RMK AO2 T02230191

More Conditions Fewer Conditions

Presión 29.91 pul
Visibilidad 10.0 Millas
Nubes Muy nublado 1300 ft
Nublado 2700 ft
Punto de rocío 66 ° F
Humedad 82%
Precipitaciones 0.00 pul
Espesor de la nieve No disponible.
UV 0 de una escala de 12
Polen 5.80 de una escala de 12
Calidad del aire No disponible.
Flu Activity No disponible.
METAR KAPY 221455Z AUTO 14013G17KT 10SM BKN013 OVC027 22/18 A2991 RMK AO2 T02230191

More Conditions Fewer Conditions

Nowcast | as of 7:24 am CST on November 22, 2014

Scattered showers and isolated thunderstorms will impact south Texas this morning. Through 10 am CST...the thunderstorms will be capable of producing brief heavy downpours...small hail...gusts to 40 miles an hour...and frequent cloud to ground lightning. Rainfall amounts in and near the thunderstorms can easily exceed a half of an inch.

×

10-Day Weather Forecast

Almanac

Astronomía

Nov. 22, 2014 Salida Puesta
Hora real
Crepúsculo civil
Crepúsculo náutico
Crepúsculo astronómico
Luna
Horas de luz
Horas de luz
Tomorrow will be .
, % of the Moon is Illuminated

Extremos de hoy

Máximos del estado Bajos del estado

Community

WunderPhotos

Upload Photos

1,772,831 ¡fotos cargadas!

WunderBlogs® & News

Nearby

Calidad del aire

  Calidad del aire Índice AQ Contaminante
Not available.

Grosos de nieve

Estación Profundido Altura

Actividad de terremotos

Ciudad Distance Mag. Tiempo y dato
Magnitud mínima muestra es 2,5.

Temperaturas de aguas costeras

Lugar Temperatura

Estaciones meteorológicas cercanas